createdAt,value
2023-03-14T00:04:08.262Z,31.25
2023-03-14T00:09:13.241Z,31.14
2023-03-14T00:14:18.949Z,30.89
2023-03-14T00:19:23.622Z,30.87
2023-03-14T00:24:28.220Z,30.29
2023-03-14T00:29:32.898Z,30.65
2023-03-14T00:34:37.665Z,30.87
2023-03-14T00:39:42.526Z,30.50
2023-03-14T00:44:48.267Z,29.08
2023-03-14T00:49:53.014Z,29.55
2023-03-14T00:54:57.615Z,29.84
2023-03-14T01:00:02.505Z,29.26
2023-03-14T01:05:07.625Z,29.87
2023-03-14T01:10:13.339Z,28.99
2023-03-14T01:15:18.222Z,29.22
2023-03-14T01:20:22.904Z,28.91
2023-03-14T01:25:28.224Z,28.91
2023-03-14T01:30:33.061Z,29.12
2023-03-14T01:35:37.928Z,28.32
2023-03-14T01:40:47.443Z,28.30
2023-03-14T01:46:02.724Z,28.67
2023-03-14T01:51:16.718Z,28.70
2023-03-14T01:56:22.099Z,27.91
2023-03-14T02:01:28.837Z,28.35
2023-03-14T02:06:58.922Z,28.48
2023-03-14T02:12:11.123Z,27.53
2023-03-14T02:17:26.584Z,27.25
2023-03-14T02:22:51.358Z,27.54
2023-03-14T02:27:57.129Z,26.39
2023-03-14T02:33:06.790Z,27.43
2023-03-14T02:38:33.815Z,27.57
2023-03-14T02:43:41.008Z,26.49
2023-03-14T02:49:00.547Z,26.69
2023-03-14T02:54:05.277Z,26.32
2023-03-14T02:59:10.120Z,26.76
2023-03-14T03:04:23.628Z,26.15
2023-03-14T03:09:28.260Z,26.42
2023-03-14T03:14:33.900Z,24.08
2023-03-14T03:19:41.722Z,26.68
2023-03-14T03:24:48.490Z,26.07
2023-03-14T03:29:52.641Z,26.31
2023-03-14T03:34:57.840Z,25.46
2023-03-14T03:40:03.282Z,25.71
2023-03-14T03:45:09.284Z,25.84
2023-03-14T03:50:20.051Z,24.95
2023-03-14T03:55:24.776Z,25.33
2023-03-14T04:00:29.554Z,25.63
2023-03-14T04:05:34.093Z,25.78
2023-03-14T04:10:44.636Z,24.25
2023-03-14T04:16:17.989Z,25.34
2023-03-14T04:21:23.210Z,25.05
2023-03-14T04:26:33.061Z,24.49
2023-03-14T04:31:38.046Z,24.54
2023-03-14T04:36:42.857Z,23.83
2023-03-14T04:41:52.710Z,24.47
2023-03-14T04:46:57.951Z,21.86
2023-03-14T04:52:03.520Z,22.40
2023-03-14T04:57:09.589Z,24.02
2023-03-14T05:02:15.759Z,24.34
2023-03-14T05:07:32.604Z,23.96
2023-03-14T05:12:56.275Z,23.83
2023-03-14T05:18:25.206Z,23.40
2023-03-14T05:23:46.551Z,22.64
2023-03-14T05:29:08.073Z,23.80
2023-03-14T05:34:22.355Z,21.08
2023-03-14T05:39:45.068Z,23.66
2023-03-14T05:45:21.677Z,21.42
2023-03-14T05:51:01.434Z,21.48
2023-03-14T05:56:26.076Z,20.74
2023-03-14T06:01:42.171Z,20.52
2023-03-14T06:06:56.925Z,20.30
2023-03-14T06:12:01.672Z,20.02
2023-03-14T06:17:11.697Z,18.97
2023-03-14T06:22:25.757Z,18.52
2023-03-14T06:27:31.789Z,18.56
2023-03-14T06:32:36.765Z,17.80
2023-03-14T06:37:46.083Z,17.33
2023-03-14T06:42:51.763Z,16.81
2023-03-14T06:47:58.841Z,16.23
2023-03-14T06:53:12.914Z,15.92
2023-03-14T06:58:20.321Z,15.63
2023-03-14T07:03:25.344Z,15.18
2023-03-14T07:08:40.282Z,14.94
2023-03-14T07:13:45.044Z,14.90
2023-03-14T07:18:51.385Z,14.44
2023-03-14T07:23:57.319Z,14.86
2023-03-14T07:29:05.379Z,14.16
2023-03-14T07:34:10.137Z,14.34
2023-03-14T07:39:18.243Z,14.37
2023-03-14T07:44:35.997Z,14.03
2023-03-14T07:49:40.594Z,14.21
2023-03-14T07:54:45.285Z,13.83
2023-03-14T07:59:50.029Z,12.99
2023-03-14T08:04:54.816Z,12.63
2023-03-14T08:09:59.413Z,12.84
2023-03-14T08:15:04.417Z,13.24
2023-03-14T08:20:10.770Z,13.29
2023-03-14T08:25:15.667Z,12.96
2023-03-14T08:30:22.516Z,13.30
2023-03-14T08:35:28.739Z,13.66
2023-03-14T08:40:33.435Z,13.56
2023-03-14T08:45:38.229Z,13.95
2023-03-14T08:50:42.925Z,13.74
2023-03-14T08:55:47.577Z,14.32
2023-03-14T09:00:52.600Z,13.97
2023-03-14T09:05:57.292Z,14.47
2023-03-14T09:11:03.520Z,15.26
2023-03-14T09:16:08.926Z,15.82
2023-03-14T09:21:14.005Z,15.53
2023-03-14T09:26:18.788Z,15.61
2023-03-14T09:31:23.679Z,15.42
2023-03-14T09:36:27.837Z,15.82
2023-03-14T09:41:39.697Z,15.75
2023-03-14T09:46:49.841Z,16.08
2023-03-14T09:51:58.649Z,15.68
2023-03-14T09:57:03.562Z,15.63
2023-03-14T10:02:26.719Z,16.38
2023-03-14T10:07:33.999Z,15.63
2023-03-14T10:12:44.189Z,15.52
2023-03-14T10:17:53.572Z,16.04
2023-03-14T10:22:58.380Z,15.43
2023-03-14T10:28:04.513Z,15.70
2023-03-14T10:33:27.936Z,16.28
2023-03-14T10:38:36.506Z,15.73
2023-03-14T10:43:41.321Z,15.44
2023-03-14T10:48:47.954Z,16.28
2023-03-14T10:54:04.174Z,15.98
2023-03-14T10:59:17.681Z,15.90
2023-03-14T11:04:48.483Z,15.90
2023-03-14T11:10:17.882Z,15.84
2023-03-14T11:15:42.825Z,16.74
2023-03-14T11:20:55.554Z,15.76
2023-03-14T11:26:21.262Z,16.42
2023-03-14T11:31:41.948Z,16.51
2023-03-14T11:36:56.575Z,16.05
2023-03-14T11:42:05.479Z,16.22
2023-03-14T11:47:29.339Z,15.59
2023-03-14T11:52:37.531Z,16.13
2023-03-14T11:57:45.298Z,16.11
2023-03-14T12:03:18.110Z,15.70
2023-03-14T12:08:34.505Z,15.86
2023-03-14T12:13:42.398Z,15.77
2023-03-14T12:18:48.564Z,16.18
2023-03-14T12:24:00.178Z,15.88
2023-03-14T12:29:11.276Z,16.03
2023-03-14T12:34:16.382Z,15.14
2023-03-14T12:39:25.670Z,15.74
2023-03-14T12:44:34.102Z,16.00
2023-03-14T12:49:42.485Z,15.47
2023-03-14T12:54:47.526Z,15.52
2023-03-14T13:00:00.753Z,15.60
2023-03-14T13:05:12.771Z,15.76
2023-03-14T13:10:38.190Z,15.66
2023-03-14T13:15:51.610Z,15.48
2023-03-14T13:21:05.191Z,14.51
2023-03-14T13:26:17.524Z,14.01
2023-03-14T13:31:32.535Z,13.92
2023-03-14T13:36:39.271Z,13.21
2023-03-14T13:41:45.748Z,13.34
2023-03-14T13:46:51.130Z,12.61
2023-03-14T13:51:57.100Z,12.49
2023-03-14T13:57:07.573Z,12.21
2023-03-14T14:02:19.615Z,12.14
2023-03-14T14:07:25.336Z,12.12
2023-03-14T14:12:43.181Z,12.00
2023-03-14T14:17:57.615Z,12.08
2023-03-14T14:23:09.657Z,12.30
2023-03-14T14:28:29.131Z,11.93
2023-03-14T14:33:58.502Z,11.69
2023-03-14T14:39:20.248Z,11.83
2023-03-14T14:44:39.665Z,11.55
2023-03-14T14:49:44.500Z,11.64
2023-03-14T14:55:02.755Z,11.75
2023-03-14T15:00:15.456Z,11.59
2023-03-14T15:05:26.301Z,12.33
2023-03-14T15:10:31.263Z,11.29
2023-03-14T15:15:36.833Z,11.49
2023-03-14T15:20:41.454Z,11.96
2023-03-14T15:25:55.407Z,11.94
2023-03-14T15:31:01.687Z,11.52
2023-03-14T15:36:09.015Z,11.60
2023-03-14T15:41:13.675Z,11.38
2023-03-14T15:46:20.683Z,11.47
2023-03-14T15:51:25.376Z,10.88
2023-03-14T15:56:33.045Z,11.40
2023-03-14T16:01:37.933Z,11.67
2023-03-14T16:06:43.129Z,11.10
2023-03-14T16:11:48.527Z,11.71
2023-03-14T16:16:55.343Z,11.71
2023-03-14T16:22:00.092Z,12.09
2023-03-14T16:27:05.559Z,11.75
2023-03-14T16:32:12.294Z,11.52
2023-03-14T16:37:17.075Z,11.85
2023-03-14T16:42:22.664Z,11.85
2023-03-14T16:47:27.492Z,11.35
2023-03-14T16:52:32.158Z,11.46
2023-03-14T16:57:37.278Z,11.67
2023-03-14T17:02:41.994Z,11.74
2023-03-14T17:07:46.597Z,12.46
2023-03-14T17:12:52.170Z,12.02
2023-03-14T17:17:57.412Z,12.04
2023-03-14T17:23:02.092Z,11.74
2023-03-14T17:28:07.632Z,11.82
2023-03-14T17:33:13.853Z,12.29
2023-03-14T17:38:18.552Z,12.47
2023-03-14T17:43:23.385Z,12.87
2023-03-14T17:48:28.528Z,12.81
2023-03-14T17:53:33.468Z,12.42
2023-03-14T17:58:39.110Z,12.36
2023-03-14T18:03:45.140Z,12.47
2023-03-14T18:08:50.815Z,12.42
2023-03-14T18:13:55.802Z,12.83
2023-03-14T18:19:01.389Z,12.74
2023-03-14T18:24:06.149Z,12.70
2023-03-14T18:29:10.775Z,12.97
2023-03-14T18:34:15.429Z,12.65
2023-03-14T18:39:20.201Z,12.66
2023-03-14T18:44:26.283Z,12.96
2023-03-14T18:49:30.989Z,12.98
2023-03-14T18:54:36.340Z,13.29
2023-03-14T18:59:41.020Z,12.82
2023-03-14T19:04:45.543Z,13.59
2023-03-14T19:09:50.636Z,13.15
2023-03-14T19:14:55.270Z,13.82
2023-03-14T19:20:00.052Z,13.55
2023-03-14T19:25:05.372Z,13.97
2023-03-14T19:30:10.768Z,14.26
2023-03-14T19:35:14.899Z,14.34
2023-03-14T19:40:19.780Z,14.11
2023-03-14T19:45:35.529Z,14.47
2023-03-14T19:50:42.629Z,13.45
2023-03-14T19:55:47.713Z,14.14
2023-03-14T20:00:52.893Z,14.96
2023-03-14T20:05:57.868Z,14.29
2023-03-14T20:11:10.604Z,13.97
2023-03-14T20:16:15.405Z,13.71
2023-03-14T20:21:20.062Z,14.21
2023-03-14T20:26:24.916Z,13.67
2023-03-14T20:31:29.821Z,13.64
2023-03-14T20:36:36.019Z,13.69
2023-03-14T20:41:43.238Z,14.17
2023-03-14T20:46:47.964Z,14.29
2023-03-14T20:51:52.745Z,14.28
2023-03-14T20:56:57.415Z,14.90
2023-03-14T21:07:23.725Z,14.71
2023-03-14T21:12:28.484Z,14.52
2023-03-14T21:17:33.348Z,14.12
2023-03-14T21:22:38.016Z,14.77
2023-03-14T21:27:43.662Z,14.81
2023-03-14T21:32:48.329Z,15.15
2023-03-14T21:37:52.913Z,15.22
2023-03-14T21:42:57.766Z,15.18
2023-03-14T21:48:03.580Z,15.34
2023-03-14T21:53:08.421Z,15.41
2023-03-14T21:58:15.474Z,15.40
2023-03-14T22:03:24.390Z,15.46
2023-03-14T22:08:30.023Z,15.62
2023-03-14T22:13:34.682Z,15.85
2023-03-14T22:18:39.383Z,16.01
2023-03-14T22:23:44.038Z,15.64
2023-03-14T22:28:49.460Z,16.18
2023-03-14T22:33:54.133Z,16.59
2023-03-14T22:38:59.593Z,16.36
2023-03-14T22:44:04.444Z,16.91
2023-03-14T22:49:09.142Z,16.94
2023-03-14T22:54:13.695Z,17.05
2023-03-14T22:59:18.381Z,16.92
2023-03-14T23:04:23.220Z,17.02
2023-03-14T23:09:27.788Z,17.19
2023-03-14T23:14:32.842Z,17.28
2023-03-14T23:19:39.890Z,17.14
2023-03-14T23:24:49.779Z,17.12
2023-03-14T23:29:55.219Z,17.25
2023-03-14T23:34:59.904Z,17.05
2023-03-14T23:40:07.376Z,17.14
2023-03-14T23:45:15.202Z,17.47
2023-03-14T23:50:20.031Z,17.25
2023-03-14T23:55:24.769Z,17.44
